createdAt,value
2019-03-12T07:16:30.778Z,298.12
2019-03-12T07:17:30.747Z,309.38
2019-03-12T07:18:30.761Z,315.00
2019-03-12T07:19:30.724Z,320.62
2019-03-12T07:20:30.715Z,331.88
2019-03-12T07:21:30.704Z,331.88
2019-03-12T07:22:30.691Z,348.75
2019-03-12T07:23:30.699Z,331.88
2019-03-12T07:24:30.668Z,326.25
2019-03-12T07:25:30.655Z,292.50
2019-03-12T07:26:30.672Z,275.62
2019-03-12T07:27:30.635Z,270.00
2019-03-12T07:28:30.642Z,264.38
2019-03-12T07:29:30.612Z,258.75
2019-03-12T07:30:30.604Z,253.12
2019-03-12T07:31:30.592Z,247.50
2019-03-12T07:32:30.578Z,241.88
2019-03-12T07:33:30.589Z,236.25
2019-03-12T07:34:36.762Z,236.25
2019-03-12T07:35:31.542Z,230.62
2019-03-12T07:36:30.530Z,230.62
2019-03-12T07:37:30.518Z,230.62
2019-03-12T07:38:30.525Z,236.25
2019-03-12T07:39:30.496Z,236.25
2019-03-12T07:40:30.484Z,247.50
2019-03-12T07:41:32.677Z,253.12
2019-03-12T07:42:30.456Z,264.38
2019-03-12T07:43:30.497Z,275.62
2019-03-12T07:44:30.437Z,286.88
2019-03-12T07:45:30.421Z,303.75
2019-03-12T07:46:30.410Z,315.00
2019-03-12T07:47:35.699Z,326.25
2019-03-12T07:48:31.408Z,337.50
2019-03-12T07:49:30.380Z,343.12
2019-03-12T07:50:30.362Z,354.38
2019-03-12T07:51:30.351Z,371.25
2019-03-12T07:52:30.340Z,388.12
2019-03-12T07:53:30.330Z,399.38
2019-03-12T07:54:30.339Z,405.00
2019-03-12T07:55:30.304Z,421.88
2019-03-12T07:56:30.290Z,427.50
2019-03-12T07:57:30.282Z,433.12
2019-03-12T07:58:35.564Z,444.38
2019-03-12T07:59:31.275Z,444.38
2019-03-12T08:00:30.251Z,450.00
2019-03-12T08:01:30.243Z,455.62
2019-03-12T08:02:30.221Z,461.25
2019-03-12T08:03:30.213Z,461.25
2019-03-12T08:04:30.222Z,466.88
2019-03-12T08:05:30.185Z,461.25
2019-03-12T08:06:30.171Z,478.12
2019-03-12T08:07:30.162Z,461.25
2019-03-12T08:08:30.148Z,466.88
2019-03-12T08:09:30.136Z,461.25
2019-03-12T08:10:30.145Z,450.00
2019-03-12T08:11:30.112Z,444.38
2019-03-12T08:12:30.103Z,433.12
2019-03-12T08:13:30.092Z,421.88
2019-03-12T08:14:30.076Z,416.25
2019-03-12T08:15:30.087Z,410.62
2019-03-12T08:16:30.054Z,399.38
2019-03-12T08:17:30.042Z,382.50
2019-03-12T08:18:30.030Z,376.88
2019-03-12T08:19:30.019Z,376.88
2019-03-12T08:20:30.024Z,371.25
2019-03-12T08:21:29.997Z,382.50
2019-03-12T08:22:29.985Z,410.62
2019-03-12T08:23:29.972Z,427.50
2019-03-12T08:24:29.960Z,421.88
2019-03-12T08:25:29.970Z,421.88
2019-03-12T08:26:29.935Z,416.25
2019-03-12T08:27:29.924Z,416.25
2019-03-12T08:28:29.921Z,421.88
2019-03-12T08:29:29.902Z,433.12
2019-03-12T08:30:29.911Z,438.75
2019-03-12T08:31:29.876Z,438.75
2019-03-12T08:32:29.864Z,444.38
2019-03-12T08:33:29.851Z,450.00
2019-03-12T08:34:29.844Z,450.00
2019-03-12T08:35:29.830Z,450.00
2019-03-12T08:36:29.837Z,455.62
2019-03-12T08:37:29.808Z,461.25
2019-03-12T08:38:29.796Z,472.50
2019-03-12T08:39:29.781Z,478.12
2019-03-12T08:40:29.769Z,489.38
2019-03-12T08:41:29.779Z,506.25
2019-03-12T08:42:29.748Z,511.88
2019-03-12T08:43:29.741Z,528.75
2019-03-12T08:44:29.723Z,551.25
2019-03-12T08:45:29.715Z,579.38
2019-03-12T08:46:29.721Z,596.25
2019-03-12T08:47:29.690Z,624.38
2019-03-12T08:48:29.678Z,641.25
2019-03-12T08:49:29.674Z,658.12
2019-03-12T08:50:29.658Z,669.38
2019-03-12T08:51:29.662Z,680.62
2019-03-12T08:52:29.630Z,686.25
2019-03-12T08:53:29.621Z,680.62
2019-03-12T08:54:29.606Z,697.50
2019-03-12T08:55:29.594Z,697.50
2019-03-12T08:56:32.582Z,736.88
2019-03-12T08:57:29.573Z,765.00
2019-03-12T08:58:29.561Z,821.25
2019-03-12T08:59:29.549Z,855.00
2019-03-12T09:00:29.538Z,911.25
2019-03-12T09:01:29.543Z,900.00
2019-03-12T09:02:29.513Z,860.62
2019-03-12T09:03:29.502Z,866.25
2019-03-12T09:04:29.498Z,826.88
2019-03-12T09:05:29.480Z,877.50
2019-03-12T09:06:29.484Z,900.00
2019-03-12T09:07:29.456Z,900.00
2019-03-12T09:08:29.443Z,888.75
2019-03-12T09:09:29.433Z,911.25
2019-03-12T09:10:29.439Z,916.88
2019-03-12T09:11:29.427Z,950.62
2019-03-12T09:12:29.394Z,939.38
2019-03-12T09:13:29.385Z,894.38
2019-03-12T09:14:29.373Z,849.38
2019-03-12T09:15:29.361Z,810.00
2019-03-12T09:16:29.371Z,815.62
2019-03-12T09:17:29.335Z,810.00
2019-03-12T09:18:29.324Z,832.50
2019-03-12T09:19:29.314Z,877.50
2019-03-12T09:20:29.300Z,911.25
2019-03-12T09:21:29.293Z,961.88
2019-03-12T09:22:29.294Z,945.00
2019-03-12T09:23:29.265Z,894.38
2019-03-12T09:24:29.252Z,866.25
2019-03-12T09:25:29.240Z,866.25
2019-03-12T09:26:29.232Z,860.62
2019-03-12T09:27:29.235Z,866.25
2019-03-12T09:28:29.206Z,871.88
2019-03-12T09:29:29.196Z,877.50
2019-03-12T09:30:29.186Z,871.88
2019-03-12T09:31:29.172Z,855.00
2019-03-12T09:32:29.176Z,849.38
2019-03-12T09:33:29.147Z,838.12
2019-03-12T09:34:29.140Z,826.88
2019-03-12T09:35:29.129Z,804.38
2019-03-12T09:36:29.109Z,748.12
2019-03-12T09:37:29.118Z,748.12
2019-03-12T09:38:29.092Z,720.00
2019-03-12T09:39:29.079Z,697.50
2019-03-12T09:40:29.066Z,697.50
2019-03-12T09:41:29.054Z,686.25
2019-03-12T09:42:29.059Z,686.25
2019-03-12T09:43:29.049Z,686.25
2019-03-12T09:44:29.017Z,675.00
2019-03-12T09:45:29.006Z,675.00
2019-03-12T09:46:28.998Z,675.00
2019-03-12T09:47:28.983Z,680.62
2019-03-12T09:48:28.990Z,697.50
2019-03-12T09:49:28.958Z,703.12
2019-03-12T09:50:28.951Z,742.50
2019-03-12T09:51:28.937Z,810.00
2019-03-12T09:52:28.926Z,883.12
2019-03-12T09:53:28.928Z,961.88
2019-03-12T09:54:28.899Z,973.12
2019-03-12T09:55:28.891Z,1018.12
2019-03-12T09:56:28.876Z,1068.75
2019-03-12T09:57:28.866Z,1074.38
2019-03-12T09:58:28.874Z,1203.75
2019-03-12T09:59:28.840Z,1096.88
2019-03-12T10:00:28.827Z,1018.12
2019-03-12T10:01:28.824Z,984.38
2019-03-12T10:02:28.805Z,1018.12
2019-03-12T10:03:28.817Z,984.38
2019-03-12T10:04:28.902Z,956.25
2019-03-12T10:05:28.770Z,1006.88
2019-03-12T10:06:28.760Z,961.88
2019-03-12T10:07:28.747Z,933.75
2019-03-12T10:08:28.734Z,956.25
2019-03-12T10:09:28.743Z,950.62
2019-03-12T10:10:28.709Z,956.25
2019-03-12T10:11:28.756Z,945.00
2019-03-12T10:12:28.687Z,967.50
2019-03-12T10:13:28.676Z,950.62
2019-03-12T10:14:28.683Z,939.38
2019-03-12T10:15:28.656Z,922.50
2019-03-12T10:16:28.639Z,871.88
2019-03-12T10:17:28.627Z,804.38
2019-03-12T10:18:28.614Z,776.25
2019-03-12T10:19:28.624Z,793.12
2019-03-12T10:20:28.597Z,821.25
2019-03-12T10:21:28.583Z,871.88
2019-03-12T10:22:28.571Z,860.62
2019-03-12T10:23:28.554Z,826.88
2019-03-12T10:24:29.077Z,815.62
2019-03-12T10:25:28.542Z,793.12
2019-03-12T10:26:28.522Z,804.38
2019-03-12T10:27:28.510Z,804.38
2019-03-12T10:28:28.514Z,810.00
2019-03-12T10:29:28.525Z,793.12
2019-03-12T10:30:28.473Z,781.88
2019-03-12T10:31:28.461Z,748.12
2019-03-12T10:32:28.450Z,703.12
2019-03-12T10:33:28.437Z,720.00
2019-03-12T10:34:29.893Z,708.75
2019-03-12T10:35:28.437Z,708.75
2019-03-12T10:36:30.931Z,708.75
2019-03-12T10:37:28.389Z,708.75
2019-03-12T10:38:28.379Z,731.25
2019-03-12T10:39:28.367Z,742.50
2019-03-12T10:40:28.376Z,753.75
2019-03-12T10:41:28.345Z,776.25
2019-03-12T10:42:28.333Z,810.00
2019-03-12T10:43:28.322Z,849.38
2019-03-12T10:44:28.310Z,877.50
2019-03-12T10:45:28.331Z,933.75
2019-03-12T10:46:28.287Z,978.75
2019-03-12T10:47:28.275Z,945.00
2019-03-12T10:48:28.263Z,894.38
2019-03-12T10:49:37.568Z,905.62
2019-03-12T10:50:29.264Z,961.88
2019-03-12T10:51:28.226Z,1068.75
2019-03-12T10:52:28.225Z,1130.62
2019-03-12T10:53:28.204Z,1040.62
2019-03-12T10:54:28.194Z,1080.00
2019-03-12T10:55:28.204Z,1091.25
2019-03-12T10:56:28.168Z,1209.38
2019-03-12T10:57:28.154Z,1130.62
2019-03-12T10:58:28.145Z,1141.88
2019-03-12T10:59:28.133Z,1051.88
2019-03-12T11:00:28.118Z,1001.25
2019-03-12T11:01:28.126Z,1018.12
2019-03-12T11:02:28.097Z,1012.50
2019-03-12T11:03:28.084Z,990.00
2019-03-12T11:04:28.072Z,990.00
2019-03-12T11:05:28.061Z,1018.12
2019-03-12T11:06:28.068Z,1051.88
2019-03-12T11:07:28.038Z,1113.75
2019-03-12T11:08:28.025Z,1141.88
2019-03-12T11:09:28.013Z,1113.75
2019-03-12T11:10:28.050Z,1147.50
2019-03-12T11:11:28.008Z,1113.75
2019-03-12T11:12:27.978Z,1158.75
2019-03-12T11:13:27.968Z,1141.88
2019-03-12T11:14:28.064Z,1130.62
2019-03-12T11:15:27.946Z,1141.88
2019-03-12T11:16:27.952Z,1338.75
2019-03-12T11:17:27.929Z,1316.25
2019-03-12T11:18:27.910Z,1445.62
2019-03-12T11:19:27.897Z,1513.12
2019-03-12T11:20:27.910Z,1906.88
2019-03-12T11:21:27.882Z,1710.00
2019-03-12T11:22:27.861Z,1642.50
2019-03-12T11:23:27.850Z,1895.62
2019-03-12T11:24:27.845Z,1923.75
2019-03-12T11:25:28.406Z,1963.12
2019-03-12T11:26:27.817Z,1749.38
2019-03-12T11:27:27.805Z,1828.12
2019-03-12T11:28:27.792Z,1794.38
2019-03-12T11:29:27.791Z,1732.50
2019-03-12T11:30:27.786Z,1833.75
2019-03-12T11:31:27.756Z,1738.12
2019-03-12T11:32:27.746Z,1783.12
2019-03-12T11:33:27.741Z,1777.50
2019-03-12T11:34:27.722Z,1715.62
2019-03-12T11:35:38.312Z,1563.75
2019-03-12T11:36:28.710Z,1518.75
2019-03-12T11:37:27.686Z,1305.00
2019-03-12T11:38:27.691Z,1333.12
2019-03-12T11:39:27.675Z,1271.25
2019-03-12T11:40:31.972Z,1175.62
2019-03-12T11:41:28.693Z,1170.00
2019-03-12T11:42:27.640Z,1130.62
2019-03-12T11:43:27.641Z,1074.38
2019-03-12T11:44:27.626Z,1029.38
2019-03-12T11:45:36.083Z,1035.00
2019-03-12T11:46:28.604Z,1006.88
2019-03-12T11:47:27.569Z,984.38
2019-03-12T11:48:27.554Z,990.00
2019-03-12T11:49:27.559Z,1102.50
2019-03-12T11:50:27.919Z,1141.88
2019-03-12T11:51:27.579Z,1057.50
2019-03-12T11:52:27.508Z,1068.75
2019-03-12T11:53:27.497Z,1125.00
2019-03-12T11:54:27.494Z,1153.12
2019-03-12T11:55:27.525Z,1170.00
2019-03-12T11:56:27.489Z,1321.88
2019-03-12T11:57:27.451Z,1260.00
2019-03-12T11:58:27.486Z,1192.50
2019-03-12T11:59:27.426Z,1119.38
2019-03-12T12:00:27.939Z,1046.25
2019-03-12T12:01:27.510Z,978.75
2019-03-12T12:02:27.392Z,961.88
2019-03-12T12:03:27.384Z,961.88
2019-03-12T12:04:27.368Z,1023.75
2019-03-12T12:05:27.357Z,1029.38
2019-03-12T12:06:27.369Z,1113.75
2019-03-12T12:07:27.341Z,1153.12
2019-03-12T12:08:27.327Z,1170.00
2019-03-12T12:09:27.552Z,1085.62
2019-03-12T12:10:27.298Z,1051.88
2019-03-12T12:11:27.308Z,1102.50
2019-03-12T12:12:27.279Z,1108.12
2019-03-12T12:13:27.269Z,1018.12
2019-03-12T12:14:27.251Z,978.75
2019-03-12T12:15:27.239Z,1035.00
2019-03-12T12:16:27.246Z,1068.75
2019-03-12T12:17:27.217Z,1113.75
2019-03-12T12:18:27.207Z,1192.50
2019-03-12T12:19:27.193Z,1209.38
2019-03-12T12:20:30.067Z,1265.62
2019-03-12T12:21:27.188Z,1198.12
2019-03-12T12:22:27.159Z,1147.50
2019-03-12T12:23:27.145Z,1130.62
2019-03-12T12:24:27.141Z,1147.50
2019-03-12T12:25:27.126Z,1080.00
2019-03-12T12:26:27.131Z,1051.88
2019-03-12T12:27:27.105Z,1046.25
2019-03-12T12:28:27.089Z,1068.75
2019-03-12T12:29:27.078Z,1040.62
2019-03-12T12:30:27.067Z,1040.62
2019-03-12T12:31:27.073Z,1023.75
2019-03-12T12:32:27.042Z,1012.50
2019-03-12T12:33:27.032Z,1035.00
2019-03-12T12:34:27.021Z,1018.12
2019-03-12T12:35:27.008Z,1006.88
2019-03-12T12:36:27.019Z,1018.12
2019-03-12T12:37:26.984Z,1023.75
2019-03-12T12:38:26.974Z,1023.75
2019-03-12T12:39:26.962Z,1012.50
2019-03-12T12:40:26.952Z,1029.38
2019-03-12T12:41:26.959Z,1046.25
2019-03-12T12:42:26.933Z,1012.50
2019-03-12T12:43:26.918Z,990.00
2019-03-12T12:44:26.905Z,838.12
2019-03-12T12:45:26.892Z,956.25
2019-03-12T12:46:26.898Z,950.62
2019-03-12T12:47:26.871Z,961.88
2019-03-12T12:48:26.857Z,945.00
2019-03-12T12:49:26.845Z,950.62
2019-03-12T12:50:26.837Z,956.25
2019-03-12T12:51:26.842Z,950.62
2019-03-12T12:52:26.813Z,956.25
2019-03-12T12:53:26.802Z,961.88
2019-03-12T12:54:26.789Z,961.88
2019-03-12T12:55:26.779Z,967.50
2019-03-12T12:56:26.785Z,939.38
2019-03-12T12:57:26.754Z,945.00
2019-03-12T12:58:26.744Z,984.38
2019-03-12T12:59:26.729Z,1023.75
2019-03-12T13:00:26.718Z,1141.88
2019-03-12T13:01:26.830Z,1040.62
2019-03-12T13:02:26.701Z,973.12
2019-03-12T13:03:26.683Z,939.38
2019-03-12T13:04:26.670Z,939.38
2019-03-12T13:05:26.658Z,928.12
2019-03-12T13:06:26.646Z,950.62
2019-03-12T13:07:26.650Z,933.75
2019-03-12T13:08:26.638Z,939.38
2019-03-12T13:09:26.611Z,967.50
2019-03-12T13:10:26.608Z,1006.88
2019-03-12T13:11:26.586Z,1063.12
2019-03-12T13:12:26.592Z,1068.75
2019-03-12T13:13:26.562Z,1080.00
2019-03-12T13:14:26.551Z,1181.25
2019-03-12T13:15:26.539Z,1271.25
2019-03-12T13:16:26.532Z,1288.12
2019-03-12T13:17:26.537Z,1321.88
2019-03-12T13:18:26.503Z,1305.00
2019-03-12T13:19:26.495Z,1288.12
2019-03-12T13:20:26.482Z,1147.50
2019-03-12T13:21:26.468Z,1040.62
2019-03-12T13:22:26.479Z,1012.50
2019-03-12T13:23:26.448Z,1023.75
2019-03-12T13:24:26.494Z,1035.00
2019-03-12T13:25:26.428Z,1040.62
2019-03-12T13:26:26.411Z,1091.25
2019-03-12T13:27:26.426Z,1108.12
2019-03-12T13:28:26.394Z,1170.00
2019-03-12T13:29:26.376Z,1119.38
2019-03-12T13:30:26.365Z,1080.00
2019-03-12T13:31:26.353Z,1057.50
2019-03-12T13:32:26.397Z,1260.00
2019-03-12T13:33:26.329Z,1209.38
2019-03-12T13:34:26.317Z,1395.00
2019-03-12T13:35:26.310Z,1316.25
2019-03-12T13:36:26.296Z,1305.00
2019-03-12T13:37:26.302Z,1355.62
2019-03-12T13:38:26.275Z,1141.88
2019-03-12T13:39:26.282Z,995.62
2019-03-12T13:40:26.566Z,916.88
2019-03-12T13:41:26.566Z,810.00
2019-03-12T13:42:26.244Z,759.38
2019-03-12T13:43:26.297Z,753.75
2019-03-12T13:44:26.344Z,742.50
2019-03-12T13:45:26.434Z,753.75
2019-03-12T13:46:26.181Z,759.38
2019-03-12T13:47:28.851Z,776.25
2019-03-12T13:48:26.270Z,776.25
2019-03-12T13:49:26.145Z,776.25
2019-03-12T13:50:26.180Z,742.50
2019-03-12T13:51:26.119Z,742.50
2019-03-12T13:52:26.128Z,815.62
2019-03-12T13:53:26.095Z,866.25
2019-03-12T13:54:26.105Z,928.12
2019-03-12T13:55:26.073Z,922.50
2019-03-12T13:56:26.167Z,849.38
2019-03-12T13:57:26.069Z,838.12
2019-03-12T13:58:26.040Z,815.62
2019-03-12T13:59:27.558Z,787.50
2019-03-12T14:00:26.014Z,832.50
2019-03-12T14:01:25.999Z,866.25
2019-03-12T14:02:26.011Z,855.00
2019-03-12T14:03:25.977Z,883.12
2019-03-12T14:04:25.997Z,961.88
2019-03-12T14:05:25.955Z,945.00
2019-03-12T14:06:25.940Z,905.62
2019-03-12T14:07:25.950Z,916.88
2019-03-12T14:08:25.919Z,838.12
2019-03-12T14:09:25.909Z,804.38
2019-03-12T14:10:25.902Z,753.75
2019-03-12T14:11:25.883Z,720.00
2019-03-12T14:12:25.889Z,686.25
2019-03-12T14:13:25.858Z,663.75
2019-03-12T14:14:25.850Z,630.00
2019-03-12T14:15:25.835Z,624.38
2019-03-12T14:16:25.827Z,607.50
2019-03-12T14:17:25.831Z,601.88
2019-03-12T14:18:25.803Z,624.38
2019-03-12T14:19:25.809Z,646.88
2019-03-12T14:20:25.777Z,675.00
2019-03-12T14:21:25.764Z,675.00
2019-03-12T14:22:25.769Z,652.50
2019-03-12T14:23:25.740Z,630.00
2019-03-12T14:24:25.729Z,630.00
2019-03-12T14:25:25.715Z,618.75
2019-03-12T14:26:25.769Z,601.88
2019-03-12T14:27:25.715Z,568.12
2019-03-12T14:28:25.684Z,534.38
2019-03-12T14:29:25.672Z,500.62
2019-03-12T14:30:25.658Z,466.88
2019-03-12T14:31:32.678Z,427.50
2019-03-12T14:32:25.654Z,388.12
2019-03-12T14:33:25.623Z,354.38
2019-03-12T14:34:27.076Z,326.25
2019-03-12T14:35:25.597Z,309.38
2019-03-12T14:36:25.585Z,298.12
2019-03-12T14:37:25.590Z,292.50
2019-03-12T14:38:25.562Z,281.25
2019-03-12T14:39:25.557Z,275.62
2019-03-12T14:40:25.539Z,286.88
2019-03-12T14:41:25.527Z,286.88
2019-03-12T14:42:25.535Z,292.50
2019-03-12T14:43:25.510Z,286.88
2019-03-12T14:44:25.492Z,281.25
2019-03-12T14:45:25.481Z,275.62
2019-03-12T14:46:25.472Z,275.62
2019-03-12T14:47:25.475Z,270.00
2019-03-12T14:48:25.447Z,270.00
2019-03-12T14:49:25.540Z,270.00
2019-03-12T14:50:25.422Z,275.62
2019-03-12T14:51:25.413Z,281.25
2019-03-12T14:52:25.418Z,281.25
2019-03-12T14:53:25.388Z,281.25
2019-03-12T14:54:25.382Z,281.25
2019-03-12T14:55:25.363Z,281.25
2019-03-12T14:56:25.358Z,270.00
2019-03-12T14:57:25.359Z,258.75
2019-03-12T14:58:25.332Z,247.50
2019-03-12T14:59:25.332Z,230.62
2019-03-12T15:00:25.307Z,213.75
2019-03-12T15:01:25.293Z,202.50
2019-03-12T15:02:25.305Z,202.50
2019-03-12T15:03:25.271Z,202.50
2019-03-12T15:04:25.351Z,202.50
2019-03-12T15:05:25.247Z,202.50
2019-03-12T15:06:25.240Z,208.12
2019-03-12T15:07:25.250Z,219.38
2019-03-12T15:08:25.212Z,241.88
2019-03-12T15:09:25.211Z,258.75
2019-03-12T15:10:25.192Z,264.38
2019-03-12T15:11:25.181Z,264.38
2019-03-12T15:12:25.166Z,264.38
2019-03-12T15:13:25.175Z,264.38
2019-03-12T15:14:25.144Z,270.00
2019-03-12T15:15:25.135Z,270.00
2019-03-12T15:16:25.121Z,264.38
2019-03-12T15:17:25.107Z,264.38
2019-03-12T15:18:25.117Z,253.12
2019-03-12T15:19:25.086Z,247.50
2019-03-12T15:20:25.073Z,258.75
2019-03-12T15:21:25.062Z,264.38
2019-03-12T15:22:25.055Z,270.00
2019-03-12T15:23:25.060Z,270.00
2019-03-12T15:24:25.027Z,275.62
2019-03-12T15:25:25.015Z,281.25
2019-03-12T15:26:25.004Z,286.88
2019-03-12T15:27:24.994Z,286.88
2019-03-12T15:28:25.000Z,281.25
2019-03-12T15:29:24.971Z,275.62
2019-03-12T15:30:24.960Z,270.00
2019-03-12T15:31:24.947Z,264.38
2019-03-12T15:32:24.936Z,258.75
2019-03-12T15:33:24.941Z,253.12
2019-03-12T15:34:24.926Z,247.50
2019-03-12T15:35:24.901Z,236.25
2019-03-12T15:36:24.887Z,225.00
2019-03-12T15:37:24.878Z,213.75
2019-03-12T15:38:24.889Z,202.50
2019-03-12T15:39:24.857Z,196.88
2019-03-12T15:40:24.841Z,191.25
2019-03-12T15:41:24.830Z,185.62
2019-03-12T15:42:24.821Z,180.00
2019-03-12T15:43:24.807Z,180.00
2019-03-12T15:44:24.812Z,185.62
2019-03-12T15:45:24.784Z,185.62
2019-03-12T15:46:24.773Z,180.00
2019-03-12T15:47:24.760Z,180.00
2019-03-12T15:48:24.748Z,180.00
2019-03-12T15:49:24.770Z,168.75
2019-03-12T15:50:24.727Z,163.12
2019-03-12T15:51:24.714Z,157.50
2019-03-12T15:52:24.700Z,151.88
2019-03-12T15:53:24.691Z,151.88
2019-03-12T15:54:24.696Z,146.25
2019-03-12T15:55:24.674Z,140.62
2019-03-12T15:56:24.656Z,135.00
2019-03-12T15:57:24.642Z,123.75
2019-03-12T15:58:24.641Z,118.12
2019-03-12T15:59:24.636Z,112.50
2019-03-12T16:00:24.610Z,112.50
2019-03-12T16:01:24.602Z,112.50
2019-03-12T16:02:24.585Z,106.88
2019-03-12T16:03:24.585Z,101.25
2019-03-12T16:04:24.580Z,95.62
2019-03-12T16:05:24.549Z,95.62
2019-03-12T16:06:26.278Z,90.00
2019-03-12T16:07:24.528Z,90.00
2019-03-12T16:08:24.517Z,90.00
2019-03-12T16:09:24.535Z,95.62
2019-03-12T16:10:24.493Z,95.62
2019-03-12T16:11:24.482Z,95.62
2019-03-12T16:12:24.470Z,95.62
2019-03-12T16:13:24.458Z,101.25
2019-03-12T16:14:24.444Z,95.62
2019-03-12T16:15:24.454Z,101.25
2019-03-12T16:16:24.424Z,101.25
2019-03-12T16:17:24.411Z,106.88
2019-03-12T16:18:24.481Z,106.88
2019-03-12T16:19:24.388Z,101.25
2019-03-12T16:20:24.394Z,101.25
2019-03-12T16:21:24.368Z,101.25
2019-03-12T16:22:24.356Z,95.62
2019-03-12T16:23:24.341Z,95.62
2019-03-12T16:24:24.334Z,90.00
2019-03-12T16:25:24.336Z,90.00
2019-03-12T16:26:24.308Z,84.38
2019-03-12T16:27:24.294Z,78.75
2019-03-12T16:28:24.284Z,73.12
2019-03-12T16:29:24.269Z,73.12
2019-03-12T16:30:24.278Z,67.50
2019-03-12T16:31:24.248Z,73.12
2019-03-12T16:32:24.244Z,78.75
2019-03-12T16:33:24.223Z,90.00
2019-03-12T16:34:24.211Z,84.38
2019-03-12T16:35:24.234Z,84.38
2019-03-12T16:36:24.197Z,84.38
2019-03-12T16:37:24.179Z,84.38
2019-03-12T16:38:24.167Z,84.38
2019-03-12T16:39:24.158Z,84.38
2019-03-12T16:40:24.143Z,84.38
2019-03-12T16:41:24.148Z,78.75
2019-03-12T16:42:34.444Z,78.75
2019-03-12T16:43:25.107Z,73.12
2019-03-12T16:44:24.095Z,67.50
2019-03-12T16:45:24.083Z,61.88
2019-03-12T16:46:24.100Z,56.25
2019-03-12T16:47:24.116Z,56.25
2019-03-12T16:48:24.048Z,56.25
2019-03-12T16:49:24.038Z,56.25
2019-03-12T16:50:24.027Z,56.25
2019-03-12T16:51:24.035Z,56.25
2019-03-12T16:52:24.006Z,61.88
2019-03-12T16:53:23.993Z,61.88
2019-03-12T16:54:23.984Z,67.50
2019-03-12T16:55:23.969Z,67.50
2019-03-12T16:56:23.972Z,67.50
2019-03-12T16:57:23.953Z,67.50
2019-03-12T16:58:23.935Z,67.50
2019-03-12T16:59:23.922Z,61.88
2019-03-12T17:00:23.916Z,61.88
2019-03-12T17:01:23.926Z,61.88
2019-03-12T17:02:23.909Z,61.88
2019-03-12T17:03:23.871Z,56.25
2019-03-12T17:04:23.862Z,56.25
2019-03-12T17:05:26.328Z,56.25
2019-03-12T17:06:23.866Z,50.62
2019-03-12T17:07:23.828Z,45.00
2019-03-12T17:08:23.856Z,45.00
2019-03-12T17:09:23.811Z,33.75
2019-03-12T17:10:23.793Z,28.12
2019-03-12T17:11:23.811Z,28.12
2019-03-12T17:12:23.776Z,22.50
2019-03-12T17:13:23.767Z,22.50
2019-03-12T17:14:23.746Z,16.88
2019-03-12T17:15:23.733Z,22.50
2019-03-12T17:16:23.718Z,22.50
2019-03-12T17:17:23.744Z,22.50
2019-03-12T17:18:23.695Z,16.88
2019-03-12T17:19:23.685Z,16.88
2019-03-12T17:20:23.687Z,11.25
2019-03-12T17:21:23.660Z,11.25
2019-03-12T17:22:23.669Z,11.25
2019-03-12T17:23:23.639Z,5.62
2019-03-12T17:24:23.635Z,5.62
2019-03-12T17:25:23.611Z,5.62
2019-03-12T17:26:23.598Z,5.62
2019-03-12T17:27:23.613Z,5.62
2019-03-12T17:28:23.576Z,5.62
2019-03-12T17:29:23.566Z,5.62
2019-03-12T17:30:23.563Z,5.62
2019-03-12T17:31:23.539Z,5.62
2019-03-12T17:32:23.553Z,5.62
2019-03-12T17:33:23.526Z,0.00
2019-03-12T17:34:35.378Z,0.00
2019-03-12T17:35:24.490Z,0.00
2019-03-12T17:36:23.482Z,0.00
2019-03-12T17:37:23.475Z,0.00
2019-03-12T17:38:23.480Z,0.00
2019-03-12T17:39:23.446Z,0.00
2019-03-12T17:40:23.434Z,0.00
2019-03-12T17:41:23.421Z,0.00
2019-03-12T17:42:23.409Z,0.00
2019-03-12T17:43:23.418Z,0.00
2019-03-12T17:44:23.388Z,0.00
2019-03-12T17:45:23.380Z,0.00
2019-03-12T17:46:23.364Z,0.00
2019-03-12T17:47:23.354Z,0.00
2019-03-12T17:48:23.358Z,0.00
2019-03-12T17:49:23.328Z,0.00
2019-03-12T17:50:23.319Z,0.00
2019-03-12T17:51:23.305Z,0.00
2019-03-12T17:52:23.293Z,0.00
2019-03-12T17:53:23.306Z,0.00
2019-03-12T17:54:23.272Z,0.00
2019-03-12T17:55:23.259Z,0.00
2019-03-12T17:56:23.248Z,0.00
2019-03-12T17:57:23.236Z,0.00
2019-03-12T17:58:23.227Z,0.00
2019-03-12T17:59:23.228Z,0.00
2019-03-12T18:00:23.199Z,0.00
2019-03-12T18:01:29.688Z,0.00
2019-03-12T18:02:24.172Z,0.00
2019-03-12T18:03:23.160Z,0.00
2019-03-12T18:04:23.169Z,0.00
2019-03-12T18:05:23.139Z,0.00
2019-03-12T18:06:23.128Z,0.00
2019-03-12T18:07:23.116Z,0.00
2019-03-12T18:08:23.104Z,0.00
2019-03-12T18:09:23.109Z,0.00
2019-03-12T18:10:23.081Z,0.00
2019-03-12T18:11:23.066Z,0.00
2019-03-12T18:12:23.053Z,0.00
2019-03-12T18:13:23.045Z,0.00
2019-03-12T18:14:23.051Z,0.00
2019-03-12T18:15:23.025Z,0.00
2019-03-12T18:16:23.015Z,0.00
2019-03-12T18:17:23.004Z,0.00
2019-03-12T18:18:22.984Z,0.00
2019-03-12T18:19:22.990Z,0.00
2019-03-12T18:20:22.963Z,0.00
2019-03-12T18:21:22.951Z,0.00
2019-03-12T18:22:23.051Z,0.00
2019-03-12T18:23:22.930Z,0.00
2019-03-12T18:24:22.931Z,0.00
2019-03-12T18:25:22.904Z,0.00
2019-03-12T18:26:22.893Z,0.00
2019-03-12T18:27:22.882Z,0.00
2019-03-12T18:28:22.872Z,0.00
2019-03-12T18:29:22.874Z,0.00
2019-03-12T18:30:22.841Z,0.00
2019-03-12T18:31:22.832Z,0.00
2019-03-12T18:32:22.817Z,0.00
2019-03-12T18:33:22.803Z,0.00
2019-03-12T18:34:22.812Z,0.00
2019-03-12T18:35:22.785Z,0.00
2019-03-12T18:36:22.769Z,0.00
2019-03-12T18:37:22.761Z,0.00
2019-03-12T18:38:22.745Z,0.00
2019-03-12T18:39:22.750Z,0.00
2019-03-12T18:40:22.720Z,0.00
2019-03-12T18:41:22.707Z,0.00
2019-03-12T18:42:22.697Z,0.00
2019-03-12T18:43:22.683Z,0.00
2019-03-12T18:44:22.689Z,0.00
2019-03-12T18:45:22.664Z,0.00
2019-03-12T18:46:22.646Z,0.00
2019-03-12T18:47:22.635Z,0.00
2019-03-12T18:48:22.624Z,0.00
2019-03-12T18:49:22.636Z,0.00
2019-03-12T18:50:22.705Z,0.00
2019-03-12T18:51:22.591Z,0.00
2019-03-12T18:52:22.577Z,0.00
2019-03-12T18:53:22.573Z,0.00
2019-03-12T18:54:22.577Z,0.00
2019-03-12T18:55:22.539Z,0.00
2019-03-12T18:56:22.528Z,0.00
2019-03-12T18:57:22.517Z,0.00
2019-03-12T18:58:22.504Z,0.00
2019-03-12T18:59:22.517Z,0.00
2019-03-12T19:00:22.482Z,0.00
2019-03-12T19:01:22.471Z,0.00
2019-03-12T19:02:22.457Z,0.00
2019-03-12T19:03:22.585Z,0.00
2019-03-12T19:04:22.453Z,0.00
2019-03-12T19:05:22.431Z,0.00
2019-03-12T19:06:22.411Z,0.00
2019-03-12T19:07:22.399Z,0.00
2019-03-12T19:08:22.390Z,0.00
2019-03-12T19:09:22.398Z,0.00
2019-03-12T19:10:22.363Z,0.00
2019-03-12T19:11:22.349Z,0.00
2019-03-12T19:12:22.337Z,0.00
2019-03-12T19:13:22.327Z,0.00
2019-03-12T19:14:22.313Z,0.00
2019-03-12T19:15:22.318Z,0.00
2019-03-12T19:16:22.289Z,0.00
2019-03-12T19:17:22.278Z,0.00
2019-03-12T19:18:22.264Z,0.00
2019-03-12T19:19:22.283Z,0.00
2019-03-12T19:20:22.241Z,0.00
2019-03-12T19:21:22.232Z,0.00
2019-03-12T19:22:22.217Z,0.00
2019-03-12T19:23:22.213Z,0.00
2019-03-12T19:24:22.214Z,0.00
2019-03-12T19:25:22.183Z,0.00
2019-03-12T19:26:22.174Z,0.00
2019-03-12T19:27:22.160Z,0.00
2019-03-12T19:28:22.148Z,0.00
2019-03-12T19:29:22.153Z,0.00
2019-03-12T19:30:22.125Z,0.00
2019-03-12T19:31:22.688Z,0.00
2019-03-12T19:32:22.100Z,0.00
2019-03-12T19:33:22.095Z,0.00
2019-03-12T19:34:22.097Z,0.00
2019-03-12T19:35:22.065Z,0.00
2019-03-12T19:36:22.054Z,0.00
2019-03-12T19:37:22.046Z,0.00
2019-03-12T19:38:22.031Z,0.00
2019-03-12T19:39:22.046Z,0.00
2019-03-12T19:40:22.007Z,0.00
2019-03-12T19:41:21.997Z,0.00
2019-03-12T19:42:21.983Z,0.00
2019-03-12T19:43:21.969Z,0.00
2019-03-12T19:44:21.985Z,0.00
2019-03-12T19:45:21.947Z,0.00
2019-03-12T19:46:21.936Z,0.00
2019-03-12T19:47:21.927Z,0.00
2019-03-12T19:48:21.914Z,0.00
2019-03-12T19:49:21.912Z,0.00
2019-03-12T19:50:21.903Z,0.00
2019-03-12T19:51:21.875Z,0.00